KVCV/VCV METAR and TAF weather

Enter ICAO airport designator
Station Type Date Time Source
KVCV METAR 2022/07/01 00:55 UTC NOAA

KVCV 010055Z AUTO 26017KT 10SM CLR 35/03 A3000 RMK AO2


Station Type Date Time Source
KVCV Decoded METAR 2022/07/01 00:55 UTC NOAA

Victorville, Southern California Logistics Airport, CA, United States (KVCV) 34-35-50N 117-22-58W
Jun 30, 2022 - 08:55 PM EDT / 2022.07.01 0055 UTC
Wind: from the W (260 degrees) at 20 MPH (17 KT):0
Visibility: 10 mile(s):0
Sky conditions: clear
Temperature: 95 F (35 C)
Dew Point: 37 F (3 C)
Relative Humidity: 13%
Pressure (altimeter): 30 in. Hg (1015 hPa)
ob: KVCV 010055Z AUTO 26017KT 10SM CLR 35/03 A3000 RMK AO2
cycle: 1

Station Type Date Time Source
KVCV TAF UTC NOAA

Error!

Example: see airport list